Saga Sapphire — 9HOF8 — position and weather

sailwx.info

Track history (hours):
 
Tides and Currents Weather Stations Pressure Air Temp Water Temp Dewpoint Dewpoint Depression Visibility Wind Speed Wind Dir Waves Ship Positions

Saga Sapphire

Last reported at 2016-Aug-29 22:33 UTC. Time now 2016-Aug-30 16:57 UTC.
Position N 58°26' W 002°42'.

Length 200 m; draft 8.6 m.

Type: Ship. MMSI: 256208000.

Date/timePositionNaut miles runAvg speedWind from/ knotsBaromVisibWave heightAir tempDewpointWater temp
2016-Aug-29 22:33N 58°26' W 002°42'9 8.6
2016-Aug-29 21:33N 58°34' W 002°40'8 8.2
2016-Aug-29 20:33N 58°43' W 002°38'9 8.6
2016-Aug-29 19:33N 58°51' W 002°36'8 8.3
2016-Aug-29 18:33N 58°59' W 002°38'7 7.5
2016-Aug-29 17:34N 59°01' W 002°52'3 3.4
2016-Aug-29 16:32N 59°00' W 002°58'0 0.0
2016-Aug-29 15:31N 59°00' W 002°58'0 0.0
2016-Aug-29 14:32N 59°00' W 002°58'0 0.0
2016-Aug-29 13:31N 59°00' W 002°58'0 0.0
2016-Aug-29 12:31N 59°00' W 002°58'0 0.0
2016-Aug-29 11:31N 59°00' W 002°58'0 0.0
2016-Aug-29 10:32N 59°00' W 002°58'0 0.0
2016-Aug-29 09:32N 59°00' W 002°58'0 0.0
2016-Aug-29 08:32N 59°00' W 002°58'0 0.0
2016-Aug-29 07:31N 59°00' W 002°58'1 1.3
2016-Aug-29 06:34N 59°01' W 002°57'9 8.5
2016-Aug-29 05:33N 58°59' W 002°41'1111.0
2016-Aug-29 04:33N 58°49' W 002°42'1211.8
2016-Aug-29 03:33N 58°43' W 003°02'1312.7
2016-Aug-29 02:33N 58°43' W 003°26'1212.1
2016-Aug-29 01:33N 58°43' W 003°50'1212.2
2016-Aug-29 00:33N 58°43' W 004°13'18510.2
2016-Aug-28 06:19N 55°57' W 006°46'912.2
2016-Aug-28 05:33N 55°48' W 006°43'1110.7
2016-Aug-28 04:33N 55°37' W 006°39'1111.2
2016-Aug-28 03:33N 55°30' W 006°23'1211.7
2016-Aug-28 02:33N 55°25' W 006°05'1212.1
2016-Aug-28 01:33N 55°16' W 005°51'1512.5
2016-Aug-28 00:19N 55°17' W 005°24'1012.9
2016-Aug-27 23:33N 55°22' W 005°10'1312.4
2016-Aug-27 22:31N 55°34' W 005°00'1413.7
2016-Aug-27 21:29N 55°48' W 004°58'9 9.6
2016-Aug-27 20:34N 55°56' W 004°54'3 2.9
2016-Aug-27 19:32N 55°59' W 004°56'0 0.1
2016-Aug-27 18:32N 55°59' W 004°56'0 0.0
2016-Aug-27 17:32N 55°59' W 004°56'0 0.0
2016-Aug-27 16:32N 55°59' W 004°56'0 0.0
2016-Aug-27 15:32N 55°59' W 004°56'0 0.0
2016-Aug-27 14:32N 55°59' W 004°56'0 0.0
2016-Aug-27 13:32N 55°59' W 004°56'0 0.0
2016-Aug-27 12:32N 55°59' W 004°56'0 0.0
2016-Aug-27 11:32N 55°59' W 004°56'0 0.0
2016-Aug-27 10:32N 55°59' W 004°56'0 0.0
2016-Aug-27 09:32N 55°59' W 004°56'0 0.0
2016-Aug-27 08:32N 55°59' W 004°56'0 0.0
2016-Aug-27 07:29N 55°59' W 004°56'0 0.0
2016-Aug-27 06:32N 55°59' W 004°56'0 0.0
2016-Aug-27 04:32N 55°59' W 004°56'0 0.0
2016-Aug-27 03:29N 55°59' W 004°56'0 0.0
2016-Aug-27 02:32N 55°59' W 004°56'0 0.0
2016-Aug-27 01:32N 55°59' W 004°56'0 0.0
2016-Aug-27 00:32N 55°59' W 004°56'0 0.0
2016-Aug-26 23:32N 55°59' W 004°56'0 0.0
2016-Aug-26 22:32N 55°59' W 004°56'0 0.0
2016-Aug-26 21:32N 55°59' W 004°56'0 0.0
2016-Aug-26 20:32N 55°59' W 004°56'0 0.0
2016-Aug-26 19:32N 55°59' W 004°56'0 0.0
2016-Aug-26 18:32N 55°59' W 004°56'0 0.0
2016-Aug-26 17:26N 55°59' W 004°56'0 0.0
2016-Aug-26 16:32N 55°59' W 004°56'0 0.0
2016-Aug-26 15:32N 55°59' W 004°56'0 0.0
2016-Aug-26 14:32N 55°59' W 004°56'0 0.0
2016-Aug-26 13:32N 55°59' W 004°56'0 0.0
2016-Aug-26 12:32N 55°59' W 004°56'0 0.0
2016-Aug-26 11:32N 55°59' W 004°56'0 0.0
2016-Aug-26 10:32N 55°59' W 004°56'0 0.0
2016-Aug-26 09:32N 55°59' W 004°56'0 0.0
2016-Aug-26 08:32N 55°59' W 004°56'0 0.0
2016-Aug-26 07:32N 55°59' W 004°56'0 0.0
2016-Aug-26 06:33N 55°59' W 004°56'22 9.6
2016-Aug-26 04:14N 55°37' W 004°60'19 9.9
2016-Aug-26 02:22N 55°19' W 005°10'810.4
2016-Aug-26 01:33N 55°14' W 005°21'1010.2
2016-Aug-26 00:31N 55°06' W 005°34'10 7.1
2016-Aug-25 23:08N 55°14' W 005°46'5 9.1
2016-Aug-25 22:34N 55°14' W 005°55'8 8.3
2016-Aug-25 21:33N 55°20' W 006°06'7 7.3
2016-Aug-25 20:33N 55°23' W 006°18'7 6.9
2016-Aug-25 19:33N 55°29' W 006°19'10 9.6
2016-Aug-25 18:33N 55°31' W 006°02'6 6.3
2016-Aug-25 17:33N 55°36' W 005°56'9 8.9
2016-Aug-25 16:30N 55°46' W 005°59'30 8.8
2016-Aug-25 13:09N 56°15' W 005°49'6 9.4
2016-Aug-25 12:30N 56°19' W 005°42'10 8.9
2016-Aug-25 11:25N 56°29' W 005°40'338 7.8
2016-Aug-23 16:19N 51°35' W 010°23'1216.3
2016-Aug-23 15:34N 51°28' W 010°07'1717.2
2016-Aug-23 14:34N 51°22' W 009°41'1716.7
2016-Aug-23 13:34N 51°25' W 009°15'1717.5
2016-Aug-23 12:34N 51°31' W 008°48'1717.4
2016-Aug-23 11:34N 51°37' W 008°22'1212.1
2016-Aug-23 10:34N 51°49' W 008°16'2 2.0
2016-Aug-23 09:29N 51°51' W 008°18'0 0.0
2016-Aug-23 08:23N 51°51' W 008°18'0 0.0
2016-Aug-23 07:32N 51°51' W 008°18'0 0.0
2016-Aug-23 06:32N 51°51' W 008°18'0 0.0
2016-Aug-23 05:29N 51°51' W 008°18'0 0.0
2016-Aug-23 04:32N 51°51' W 008°18'0 0.0
2016-Aug-23 03:32N 51°51' W 008°18'0 0.0
2016-Aug-23 02:32N 51°51' W 008°18'0 0.0
2016-Aug-23 01:32N 51°51' W 008°18'0 0.0
2016-Aug-23 00:32N 51°51' W 008°18'0 0.0
2016-Aug-22 23:32N 51°51' W 008°18'0 0.0
2016-Aug-22 22:32N 51°51' W 008°18'0 0.0
2016-Aug-22 21:32N 51°51' W 008°18'0 0.0
2016-Aug-22 20:32N 51°51' W 008°18'0 0.0
2016-Aug-22 19:32N 51°51' W 008°18'0 0.0
2016-Aug-22 18:32N 51°51' W 008°18'0 0.0
2016-Aug-22 17:32N 51°51' W 008°18'0 0.0
2016-Aug-22 16:32N 51°51' W 008°18'0 0.0
2016-Aug-22 15:33N 51°51' W 008°18'1 0.1
2016-Aug-22 03:05N 51°50' W 008°20'0 0.0
2016-Aug-21 18:26N 51°50' W 008°20'0 0.0
2016-Aug-21 17:32N 51°50' W 008°20'0 0.0
2016-Aug-21 16:32N 51°50' W 008°20'2 2.5
2016-Aug-21 15:34N 51°51' W 008°16'10 9.6
2016-Aug-21 14:33N 51°42' W 008°10'1211.9
2016-Aug-21 13:33N 51°33' W 007°57'9915.4
2016-Aug-21 07:08N 50°26' W 006°02'914.3
2016-Aug-21 06:32N 50°18' W 005°55'2713.3
2016-Aug-21 04:30N 49°55' W 005°34'1614.6
2016-Aug-21 03:26N 49°52' W 005°10'1314.3
2016-Aug-21 02:31N 49°52' W 004°50'1415.1
2016-Aug-21 01:34N 49°53' W 004°28'1615.5
2016-Aug-21 00:33N 49°59' W 004°05'1515.1
2016-Aug-20 23:33N 50°03' W 003°43'1413.7
2016-Aug-20 22:33N 50°08' W 003°23'1111.1
2016-Aug-20 21:33N 50°12' W 003°06'1010.1
2016-Aug-20 20:33N 50°16' W 002°52'10 9.9
2016-Aug-20 19:33N 50°20' W 002°38'1010.4
2016-Aug-20 18:33N 50°25' W 002°24'10 9.7
2016-Aug-20 17:33N 50°35' W 002°22'3 0.9
2016-Aug-20 14:33N 50°34' W 002°26'0 0.0
2016-Aug-20 13:33N 50°34' W 002°26'0 0.0
2016-Aug-20 12:33N 50°34' W 002°26'0 0.0
2016-Aug-20 11:33N 50°34' W 002°26'0 0.0
2016-Aug-20 10:33N 50°34' W 002°26'0 0.0
2016-Aug-20 09:33N 50°34' W 002°26'0 0.0
2016-Aug-20 08:33N 50°34' W 002°26'0 0.0
2016-Aug-20 07:33N 50°34' W 002°26'0 0.0
2016-Aug-20 06:33N 50°34' W 002°26'0 0.0
2016-Aug-20 05:27N 50°34' W 002°26'0 0.0
2016-Aug-20 04:33N 50°34' W 002°26'0 0.0
2016-Aug-20 03:27N 50°34' W 002°26'0 0.0
2016-Aug-20 02:33N 50°34' W 002°26'0 0.0
2016-Aug-20 01:33N 50°34' W 002°26'0 0.0
2016-Aug-20 00:27N 50°34' W 002°26'0 0.0
2016-Aug-19 23:15N 50°34' W 002°26'  
Track history (hours):
 
Tides and Currents Weather Stations Pressure Air Temp Water Temp Dewpoint Dewpoint Depression Visibility Wind Speed Wind Dir Waves Ship Positions

Saga Sapphire

Last reported at 2016-Aug-29 22:33 UTC. Time now 2016-Aug-30 16:57 UTC.
Position N 58°26' W 002°42'.

Length 200 m; draft 8.6 m.

Type: Ship. MMSI: 256208000.

Date/timePositionNaut miles runAvg speedWind from/ knotsBaromVisibWave heightAir tempDewpointWater temp
2016-Aug-29 22:33N 58°26' W 002°42'9 8.6
2016-Aug-29 21:33N 58°34' W 002°40'8 8.2
2016-Aug-29 20:33N 58°43' W 002°38'9 8.6
2016-Aug-29 19:33N 58°51' W 002°36'8 8.3
2016-Aug-29 18:33N 58°59' W 002°38'7 7.5
2016-Aug-29 17:34N 59°01' W 002°52'3 3.4
2016-Aug-29 16:32N 59°00' W 002°58'0 0.0
2016-Aug-29 15:31N 59°00' W 002°58'0 0.0
2016-Aug-29 14:32N 59°00' W 002°58'0 0.0
2016-Aug-29 13:31N 59°00' W 002°58'0 0.0
2016-Aug-29 12:31N 59°00' W 002°58'0 0.0
2016-Aug-29 11:31N 59°00' W 002°58'0 0.0
2016-Aug-29 10:32N 59°00' W 002°58'0 0.0
2016-Aug-29 09:32N 59°00' W 002°58'0 0.0
2016-Aug-29 08:32N 59°00' W 002°58'0 0.0
2016-Aug-29 07:31N 59°00' W 002°58'1 1.3
2016-Aug-29 06:34N 59°01' W 002°57'9 8.5
2016-Aug-29 05:33N 58°59' W 002°41'1111.0
2016-Aug-29 04:33N 58°49' W 002°42'1211.8
2016-Aug-29 03:33N 58°43' W 003°02'1312.7
2016-Aug-29 02:33N 58°43' W 003°26'1212.1
2016-Aug-29 01:33N 58°43' W 003°50'1212.2
2016-Aug-29 00:33N 58°43' W 004°13'18510.2
2016-Aug-28 06:19N 55°57' W 006°46'912.2
2016-Aug-28 05:33N 55°48' W 006°43'1110.7
2016-Aug-28 04:33N 55°37' W 006°39'1111.2
2016-Aug-28 03:33N 55°30' W 006°23'1211.7
2016-Aug-28 02:33N 55°25' W 006°05'1212.1
2016-Aug-28 01:33N 55°16' W 005°51'1512.5
2016-Aug-28 00:19N 55°17' W 005°24'1012.9
2016-Aug-27 23:33N 55°22' W 005°10'1312.4
2016-Aug-27 22:31N 55°34' W 005°00'1413.7
2016-Aug-27 21:29N 55°48' W 004°58'9 9.6
2016-Aug-27 20:34N 55°56' W 004°54'3 2.9
2016-Aug-27 19:32N 55°59' W 004°56'0 0.1
2016-Aug-27 18:32N 55°59' W 004°56'0 0.0
2016-Aug-27 17:32N 55°59' W 004°56'0 0.0
2016-Aug-27 16:32N 55°59' W 004°56'0 0.0
2016-Aug-27 15:32N 55°59' W 004°56'0 0.0
2016-Aug-27 14:32N 55°59' W 004°56'0 0.0
2016-Aug-27 13:32N 55°59' W 004°56'0 0.0
2016-Aug-27 12:32N 55°59' W 004°56'0 0.0
2016-Aug-27 11:32N 55°59' W 004°56'0 0.0
2016-Aug-27 10:32N 55°59' W 004°56'0 0.0
2016-Aug-27 09:32N 55°59' W 004°56'0 0.0
2016-Aug-27 08:32N 55°59' W 004°56'0 0.0
2016-Aug-27 07:29N 55°59' W 004°56'0 0.0
2016-Aug-27 06:32N 55°59' W 004°56'0 0.0
2016-Aug-27 04:32N 55°59' W 004°56'0 0.0
2016-Aug-27 03:29N 55°59' W 004°56'0 0.0
2016-Aug-27 02:32N 55°59' W 004°56'0 0.0
2016-Aug-27 01:32N 55°59' W 004°56'0 0.0
2016-Aug-27 00:32N 55°59' W 004°56'0 0.0
2016-Aug-26 23:32N 55°59' W 004°56'0 0.0
2016-Aug-26 22:32N 55°59' W 004°56'0 0.0
2016-Aug-26 21:32N 55°59' W 004°56'0 0.0
2016-Aug-26 20:32N 55°59' W 004°56'0 0.0
2016-Aug-26 19:32N 55°59' W 004°56'0 0.0
2016-Aug-26 18:32N 55°59' W 004°56'0 0.0
2016-Aug-26 17:26N 55°59' W 004°56'0 0.0
2016-Aug-26 16:32N 55°59' W 004°56'0 0.0
2016-Aug-26 15:32N 55°59' W 004°56'0 0.0
2016-Aug-26 14:32N 55°59' W 004°56'0 0.0
2016-Aug-26 13:32N 55°59' W 004°56'0 0.0
2016-Aug-26 12:32N 55°59' W 004°56'0 0.0
2016-Aug-26 11:32N 55°59' W 004°56'0 0.0
2016-Aug-26 10:32N 55°59' W 004°56'0 0.0
2016-Aug-26 09:32N 55°59' W 004°56'0 0.0
2016-Aug-26 08:32N 55°59' W 004°56'0 0.0
2016-Aug-26 07:32N 55°59' W 004°56'0 0.0
2016-Aug-26 06:33N 55°59' W 004°56'22 9.6
2016-Aug-26 04:14N 55°37' W 004°60'19 9.9
2016-Aug-26 02:22N 55°19' W 005°10'810.4
2016-Aug-26 01:33N 55°14' W 005°21'1010.2
2016-Aug-26 00:31N 55°06' W 005°34'10 7.1
2016-Aug-25 23:08N 55°14' W 005°46'5 9.1
2016-Aug-25 22:34N 55°14' W 005°55'8 8.3
2016-Aug-25 21:33N 55°20' W 006°06'7 7.3
2016-Aug-25 20:33N 55°23' W 006°18'7 6.9
2016-Aug-25 19:33N 55°29' W 006°19'10 9.6
2016-Aug-25 18:33N 55°31' W 006°02'6 6.3
2016-Aug-25 17:33N 55°36' W 005°56'9 8.9
2016-Aug-25 16:30N 55°46' W 005°59'30 8.8
2016-Aug-25 13:09N 56°15' W 005°49'6 9.4
2016-Aug-25 12:30N 56°19' W 005°42'10 8.9
2016-Aug-25 11:25N 56°29' W 005°40'338 7.8
2016-Aug-23 16:19N 51°35' W 010°23'1216.3
2016-Aug-23 15:34N 51°28' W 010°07'1717.2
2016-Aug-23 14:34N 51°22' W 009°41'1716.7
2016-Aug-23 13:34N 51°25' W 009°15'1717.5
2016-Aug-23 12:34N 51°31' W 008°48'1717.4
2016-Aug-23 11:34N 51°37' W 008°22'1212.1
2016-Aug-23 10:34N 51°49' W 008°16'2 2.0
2016-Aug-23 09:29N 51°51' W 008°18'0 0.0
2016-Aug-23 08:23N 51°51' W 008°18'0 0.0
2016-Aug-23 07:32N 51°51' W 008°18'0 0.0
2016-Aug-23 06:32N 51°51' W 008°18'0 0.0
2016-Aug-23 05:29N 51°51' W 008°18'0 0.0
2016-Aug-23 04:32N 51°51' W 008°18'0 0.0
2016-Aug-23 03:32N 51°51' W 008°18'0 0.0
2016-Aug-23 02:32N 51°51' W 008°18'0 0.0
2016-Aug-23 01:32N 51°51' W 008°18'0 0.0
2016-Aug-23 00:32N 51°51' W 008°18'0 0.0
2016-Aug-22 23:32N 51°51' W 008°18'0 0.0
2016-Aug-22 22:32N 51°51' W 008°18'0 0.0
2016-Aug-22 21:32N 51°51' W 008°18'0 0.0
2016-Aug-22 20:32N 51°51' W 008°18'0 0.0
2016-Aug-22 19:32N 51°51' W 008°18'0 0.0
2016-Aug-22 18:32N 51°51' W 008°18'0 0.0
2016-Aug-22 17:32N 51°51' W 008°18'0 0.0
2016-Aug-22 16:32N 51°51' W 008°18'0 0.0
2016-Aug-22 15:33N 51°51' W 008°18'1 0.1
2016-Aug-22 03:05N 51°50' W 008°20'0 0.0
2016-Aug-21 18:26N 51°50' W 008°20'0 0.0
2016-Aug-21 17:32N 51°50' W 008°20'0 0.0
2016-Aug-21 16:32N 51°50' W 008°20'2 2.5
2016-Aug-21 15:34N 51°51' W 008°16'10 9.6
2016-Aug-21 14:33N 51°42' W 008°10'1211.9
2016-Aug-21 13:33N 51°33' W 007°57'9915.4
2016-Aug-21 07:08N 50°26' W 006°02'914.3
2016-Aug-21 06:32N 50°18' W 005°55'2713.3
2016-Aug-21 04:30N 49°55' W 005°34'1614.6
2016-Aug-21 03:26N 49°52' W 005°10'1314.3
2016-Aug-21 02:31N 49°52' W 004°50'1415.1
2016-Aug-21 01:34N 49°53' W 004°28'1615.5
2016-Aug-21 00:33N 49°59' W 004°05'1515.1
2016-Aug-20 23:33N 50°03' W 003°43'1413.7
2016-Aug-20 22:33N 50°08' W 003°23'1111.1
2016-Aug-20 21:33N 50°12' W 003°06'1010.1
2016-Aug-20 20:33N 50°16' W 002°52'10 9.9
2016-Aug-20 19:33N 50°20' W 002°38'1010.4
2016-Aug-20 18:33N 50°25' W 002°24'10 9.7
2016-Aug-20 17:33N 50°35' W 002°22'3 0.9
2016-Aug-20 14:33N 50°34' W 002°26'0 0.0
2016-Aug-20 13:33N 50°34' W 002°26'0 0.0
2016-Aug-20 12:33N 50°34' W 002°26'0 0.0
2016-Aug-20 11:33N 50°34' W 002°26'0 0.0
2016-Aug-20 10:33N 50°34' W 002°26'0 0.0
2016-Aug-20 09:33N 50°34' W 002°26'0 0.0
2016-Aug-20 08:33N 50°34' W 002°26'0 0.0
2016-Aug-20 07:33N 50°34' W 002°26'0 0.0
2016-Aug-20 06:33N 50°34' W 002°26'0 0.0
2016-Aug-20 05:27N 50°34' W 002°26'0 0.0
2016-Aug-20 04:33N 50°34' W 002°26'0 0.0
2016-Aug-20 03:27N 50°34' W 002°26'0 0.0
2016-Aug-20 02:33N 50°34' W 002°26'0 0.0
2016-Aug-20 01:33N 50°34' W 002°26'0 0.0
2016-Aug-20 00:27N 50°34' W 002°26'0 0.0
2016-Aug-19 23:15N 50°34' W 002°26'  

Dump ship's entire track history